Terminal Aerodrome Forecast
Issued by NWS Sioux Falls, SD

Home | Current Version | Previous Version | Graphics & Text | Print | Product List | Glossary On
Versions: 1 2 3 4 5 6 7 8 9 10 11 12
118
FTUS43 KFSD 232320
TAFHON
TAF
KHON 232320Z 2400/2424 18012KT P6SM VCTS BKN050CB
     FM240100 24008KT P6SM VCTS BKN050CB
     FM240200 31006KT P6SM SCT060
     FM241500 31010KT P6SM FEW150
     FM241800 30013G19KT P6SM SCT150=

USA.gov is the U.S. government's official web portal to all federal, state and local government web resources and services.